Time;durP1;ratioP1;P1;durP2;ratioP2;P2;SDS_P1;SDS_P2;PMS_P1;PMS_P2;Temp;Humidity;BMP_temperature;BMP_pressure;BME280_temperature;BME280_humidity;BME280_pressure;Samples;Min_cycle;Max_cycle;Signal;HPM_P1;HPM_P2
2023/12/11 00:00:23;;;;;;;5.43;1.90;;;;;;;;;;4947900;28;20262;-82
2023/12/11 00:02:54;;;;;;;3.50;1.70;;;;;;;;;;4954208;29;20219;-81
2023/12/11 00:05:19;;;;;;;6.27;1.97;;;;;;;;;;4928703;28;20238;-81
2023/12/11 00:07:48;;;;;;;3.60;2.00;;;;;;;;;;4939356;29;20227;-82
2023/12/11 00:10:14;;;;;;;3.20;1.80;;;;;;;;;;4956851;28;20222;-82
2023/12/11 00:12:39;;;;;;;3.03;2.17;;;;;;;;;;4929472;28;20226;-82
2023/12/11 00:15:10;;;;;;;4.90;2.40;;;;;;;;;;4939903;28;20230;-82
2023/12/11 00:17:36;;;;;;;4.93;2.50;;;;;;;;;;4938773;29;20227;-84
2023/12/11 00:20:14;;;;;;;4.70;3.00;;;;;;;;;;4952254;28;20252;-82
2023/12/11 00:22:42;;;;;;;4.27;3.00;;;;;;;;;;4927341;28;20223;-82
2023/12/11 00:25:07;;;;;;;3.80;3.23;;;;;;;;;;4927330;28;20658;-82
2023/12/11 00:27:33;;;;;;;6.07;4.00;;;;;;;;;;4937710;29;20298;-83
2023/12/11 00:30:01;;;;;;;4.87;3.90;;;;;;;;;;4939524;29;20763;-83
2023/12/11 00:32:30;;;;;;;9.00;4.60;;;;;;;;;;4946683;28;20293;-81
2023/12/11 00:34:55;;;;;;;5.57;4.40;;;;;;;;;;4945572;29;20226;-82
2023/12/11 00:37:21;;;;;;;5.73;4.77;;;;;;;;;;4928435;28;20242;-82
2023/12/11 00:39:56;;;;;;;6.00;4.73;;;;;;;;;;4971368;28;20235;-82
2023/12/11 00:42:27;;;;;;;7.27;4.77;;;;;;;;;;4928090;28;20225;-84
2023/12/11 00:44:52;;;;;;;5.30;4.80;;;;;;;;;;4936106;29;20668;-83
2023/12/11 00:47:20;;;;;;;5.40;4.90;;;;;;;;;;4940978;28;20218;-82
2023/12/11 00:49:48;;;;;;;8.03;5.40;;;;;;;;;;4934736;29;20250;-85
2023/12/11 00:52:16;;;;;;;7.00;5.33;;;;;;;;;;4956771;28;20850;-83
2023/12/11 00:54:42;;;;;;;5.07;4.67;;;;;;;;;;4946870;28;20762;-86
2023/12/11 00:57:23;;;;;;;5.23;4.83;;;;;;;;;;4922085;28;20219;-84
2023/12/11 00:59:51;;;;;;;8.07;4.83;;;;;;;;;;4970278;28;20258;-86
2023/12/11 01:02:22;;;;;;;4.77;4.20;;;;;;;;;;4954893;28;20591;-84
2023/12/11 01:04:47;;;;;;;4.53;4.13;;;;;;;;;;4954717;28;20227;-83
2023/12/11 01:07:16;;;;;;;4.53;4.10;;;;;;;;;;4931951;28;20255;-86
2023/12/11 01:09:45;;;;;;;3.70;3.37;;;;;;;;;;4939753;28;20262;-85
2023/12/11 01:12:37;;;;;;;4.67;3.03;;;;;;;;;;4940378;28;20258;-83
2023/12/11 01:15:30;;;;;;;3.13;2.93;;;;;;;;;;4961791;28;20219;-84
2023/12/11 01:18:33;;;;;;;4.17;3.73;;;;;;;;;;4939257;29;20230;-85
2023/12/11 01:21:17;;;;;;;4.77;3.33;;;;;;;;;;4913729;29;20246;-86
2023/12/11 01:23:52;;;;;;;6.53;3.23;;;;;;;;;;4972052;28;20223;-86
2023/12/11 01:26:22;;;;;;;4.70;4.20;;;;;;;;;;4956366;28;20443;-85
2023/12/11 01:28:51;;;;;;;6.17;4.67;;;;;;;;;;4951561;28;20246;-85
2023/12/11 01:31:20;;;;;;;6.40;4.57;;;;;;;;;;4938757;28;20219;-84
2023/12/11 01:33:49;;;;;;;4.90;4.00;;;;;;;;;;4939696;28;20250;-86
2023/12/11 01:36:35;;;;;;;9.13;4.67;;;;;;;;;;4925801;28;20211;-84
2023/12/11 01:39:01;;;;;;;8.50;4.27;;;;;;;;;;4957034;28;20237;-83
2023/12/11 01:41:29;;;;;;;10.50;5.53;;;;;;;;;;4948001;28;20222;-83
2023/12/11 01:44:05;;;;;;;8.17;4.97;;;;;;;;;;4940932;29;20233;-84
2023/12/11 01:46:33;;;;;;;8.27;4.70;;;;;;;;;;4952577;28;20237;-82
2023/12/11 01:49:05;;;;;;;8.83;4.60;;;;;;;;;;4933333;29;20223;-86
2023/12/11 01:51:39;;;;;;;9.90;4.70;;;;;;;;;;4959175;28;20226;-82
2023/12/11 01:54:04;;;;;;;6.53;4.67;;;;;;;;;;4942273;28;20227;-82
2023/12/11 01:56:30;;;;;;;10.67;4.83;;;;;;;;;;4943214;28;20230;-82
2023/12/11 01:58:56;;;;;;;12.87;5.00;;;;;;;;;;4956423;28;20226;-84
2023/12/11 02:01:23;;;;;;;7.57;4.43;;;;;;;;;;4937051;28;20217;-82
2023/12/11 02:03:52;;;;;;;11.73;5.60;;;;;;;;;;4955576;28;20719;-80
2023/12/11 02:06:20;;;;;;;11.80;5.10;;;;;;;;;;4925603;28;20225;-82
2023/12/11 02:08:51;;;;;;;10.10;4.73;;;;;;;;;;4942819;29;20230;-84
2023/12/11 02:11:20;;;;;;;12.50;5.10;;;;;;;;;;4944363;28;20697;-83
2023/12/11 02:14:09;;;;;;;22.73;6.07;;;;;;;;;;4935568;29;20223;-83
2023/12/11 02:16:36;;;;;;;17.73;5.97;;;;;;;;;;4912746;28;20214;-84
2023/12/11 02:19:08;;;;;;;18.83;6.50;;;;;;;;;;4933015;28;20328;-84
2023/12/11 02:21:37;;;;;;;23.83;6.10;;;;;;;;;;4943516;28;20222;-84
2023/12/11 02:24:25;;;;;;;17.40;6.13;;;;;;;;;;4946434;28;20582;-81
2023/12/11 02:26:51;;;;;;;17.47;5.10;;;;;;;;;;4970967;28;20234;-81
2023/12/11 02:29:23;;;;;;;19.13;6.10;;;;;;;;;;4952111;28;20233;-82
2023/12/11 02:31:54;;;;;;;20.43;5.90;;;;;;;;;;4953398;28;20508;-86
2023/12/11 02:34:32;;;;;;;28.50;6.23;;;;;;;;;;4938510;28;20317;-84
2023/12/11 02:36:59;;;;;;;21.23;6.47;;;;;;;;;;4952644;28;20286;-80
2023/12/11 02:39:28;;;;;;;25.73;5.67;;;;;;;;;;4970723;28;20231;-85
2023/12/11 02:41:53;;;;;;;34.20;6.43;;;;;;;;;;4943281;28;20223;-81
2023/12/11 02:44:37;;;;;;;22.80;6.13;;;;;;;;;;4956760;28;20705;-84
2023/12/11 02:47:06;;;;;;;28.47;6.33;;;;;;;;;;4976042;28;20237;-82
2023/12/11 02:49:34;;;;;;;20.00;5.70;;;;;;;;;;4946512;29;20245;-82
2023/12/11 02:51:59;;;;;;;24.57;7.10;;;;;;;;;;4932255;28;20224;-82
2023/12/11 02:54:25;;;;;;;27.70;6.20;;;;;;;;;;4927557;28;20258;-85
2023/12/11 02:56:53;;;;;;;24.53;5.80;;;;;;;;;;4929696;28;20600;-84
2023/12/11 02:59:18;;;;;;;30.73;6.70;;;;;;;;;;4931964;29;20236;-83
2023/12/11 03:01:51;;;;;;;23.60;6.47;;;;;;;;;;4942908;28;20350;-83
2023/12/11 03:04:17;;;;;;;27.83;6.93;;;;;;;;;;4955110;28;20227;-83
2023/12/11 03:06:43;;;;;;;28.77;7.07;;;;;;;;;;4946308;28;20273;-83
2023/12/11 03:09:08;;;;;;;25.23;6.73;;;;;;;;;;4913364;28;20211;-84
2023/12/11 03:11:34;;;;;;;30.57;7.30;;;;;;;;;;4972273;28;20289;-79
2023/12/11 03:13:59;;;;;;;30.13;7.07;;;;;;;;;;4934249;29;20234;-82
2023/12/11 03:16:25;;;;;;;28.13;6.83;;;;;;;;;;4950124;28;20223;-83
2023/12/11 03:18:50;;;;;;;30.97;6.63;;;;;;;;;;4938195;28;20223;-80
2023/12/11 03:21:16;;;;;;;36.23;7.20;;;;;;;;;;4957525;28;20734;-84
2023/12/11 03:23:41;;;;;;;25.67;7.20;;;;;;;;;;4948444;28;20227;-83
2023/12/11 03:26:09;;;;;;;27.80;6.90;;;;;;;;;;4937900;28;20223;-81
2023/12/11 03:28:35;;;;;;;32.70;8.00;;;;;;;;;;4958882;28;20222;-83
2023/12/11 03:31:00;;;;;;;27.20;7.03;;;;;;;;;;4953308;28;20230;-83
2023/12/11 03:33:26;;;;;;;34.70;7.93;;;;;;;;;;4942435;28;20225;-80
2023/12/11 03:35:51;;;;;;;26.87;6.83;;;;;;;;;;4948394;28;20277;-82
2023/12/11 03:38:19;;;;;;;36.07;7.13;;;;;;;;;;4939096;28;20608;-83
2023/12/11 03:40:47;;;;;;;26.37;7.03;;;;;;;;;;4944850;28;20237;-81
2023/12/11 03:43:13;;;;;;;27.90;7.60;;;;;;;;;;4955359;28;20211;-84
2023/12/11 03:45:41;;;;;;;32.13;8.07;;;;;;;;;;4956565;28;20664;-86
2023/12/11 03:48:06;;;;;;;34.03;8.13;;;;;;;;;;4956501;28;20218;-83
2023/12/11 03:50:34;;;;;;;29.13;8.87;;;;;;;;;;4973386;28;20235;-83
2023/12/11 03:53:02;;;;;;;35.67;9.00;;;;;;;;;;4932365;28;20218;-85
2023/12/11 03:55:30;;;;;;;35.63;8.93;;;;;;;;;;4945739;28;20262;-84
2023/12/11 03:57:58;;;;;;;33.93;9.73;;;;;;;;;;4954246;28;20281;-81
2023/12/11 04:04:10;;;;;;;30.60;9.50;;;;;;;;;;4957005;28;20249;-85
2023/12/11 04:06:38;;;;;;;36.80;9.57;;;;;;;;;;4942112;28;20226;-84
2023/12/11 04:09:07;;;;;;;32.20;9.97;;;;;;;;;;4930823;28;20981;-80
2023/12/11 04:11:36;;;;;;;27.97;9.13;;;;;;;;;;4960270;28;20233;-83
2023/12/11 04:14:01;;;;;;;32.00;8.87;;;;;;;;;;4927182;28;20218;-84
2023/12/11 04:16:27;;;;;;;34.07;8.40;;;;;;;;;;4941953;28;20242;-83
2023/12/11 04:18:54;;;;;;;29.63;9.17;;;;;;;;;;4921652;28;20281;-84
2023/12/11 04:21:20;;;;;;;30.17;8.80;;;;;;;;;;4953319;28;20229;-82
2023/12/11 04:23:46;;;;;;;25.97;8.30;;;;;;;;;;4936428;28;20222;-82
2023/12/11 04:26:16;;;;;;;26.57;8.93;;;;;;;;;;4953806;28;20219;-85
2023/12/11 04:28:42;;;;;;;31.47;8.53;;;;;;;;;;4937742;29;20230;-83
2023/12/11 04:31:08;;;;;;;25.03;8.57;;;;;;;;;;4931128;28;20550;-83
2023/12/11 04:33:37;;;;;;;30.03;7.73;;;;;;;;;;4931798;29;20219;-82
2023/12/11 04:36:07;;;;;;;31.83;8.00;;;;;;;;;;4937061;28;20666;-82
2023/12/11 04:38:33;;;;;;;31.10;8.80;;;;;;;;;;4936182;28;20716;-84
2023/12/11 04:40:58;;;;;;;24.53;8.40;;;;;;;;;;4926517;28;20250;-82
2023/12/11 04:43:24;;;;;;;25.73;7.97;;;;;;;;;;4964696;28;20740;-83
2023/12/11 04:45:49;;;;;;;40.60;8.47;;;;;;;;;;4922743;28;20241;-81
2023/12/11 04:48:15;;;;;;;36.17;8.37;;;;;;;;;;4941625;28;20227;-76
2023/12/11 04:50:43;;;;;;;33.30;8.43;;;;;;;;;;4929693;29;20717;-77
2023/12/11 04:53:08;;;;;;;23.57;7.60;;;;;;;;;;4929843;28;20215;-77
2023/12/11 04:55:34;;;;;;;31.87;7.83;;;;;;;;;;4924039;29;21016;-79
2023/12/11 04:57:59;;;;;;;37.00;8.13;;;;;;;;;;4963467;28;20270;-79
2023/12/11 05:00:27;;;;;;;30.93;6.83;;;;;;;;;;4946417;28;20297;-76
2023/12/11 05:02:55;;;;;;;25.50;7.70;;;;;;;;;;4945680;28;20229;-76
2023/12/11 05:05:20;;;;;;;32.00;7.27;;;;;;;;;;4917290;28;20226;-77
2023/12/11 05:07:48;;;;;;;30.70;7.20;;;;;;;;;;4935910;28;20242;-77
2023/12/11 05:10:14;;;;;;;24.77;6.67;;;;;;;;;;4937357;28;20309;-76
2023/12/11 05:12:39;;;;;;;21.80;6.17;;;;;;;;;;4952680;28;20694;-77
2023/12/11 05:15:05;;;;;;;28.63;6.50;;;;;;;;;;4933155;28;20241;-77
2023/12/11 05:17:34;;;;;;;25.93;7.13;;;;;;;;;;4941713;28;20604;-77
2023/12/11 05:19:59;;;;;;;30.73;6.93;;;;;;;;;;4965740;28;20309;-77
2023/12/11 05:22:25;;;;;;;23.07;6.60;;;;;;;;;;4950863;28;20222;-77
2023/12/11 05:24:51;;;;;;;30.20;7.23;;;;;;;;;;4951464;28;20700;-77
2023/12/11 05:27:16;;;;;;;22.27;6.43;;;;;;;;;;4949794;28;20257;-77
2023/12/11 05:29:49;;;;;;;25.17;6.47;;;;;;;;;;4939135;29;20230;-77
2023/12/11 05:32:17;;;;;;;25.60;6.13;;;;;;;;;;4966489;28;20231;-76
2023/12/11 05:34:45;;;;;;;21.40;6.47;;;;;;;;;;4950114;28;20290;-76
2023/12/11 05:37:17;;;;;;;23.83;7.17;;;;;;;;;;4923817;28;20338;-77
2023/12/11 05:39:45;;;;;;;25.53;6.20;;;;;;;;;;4966680;28;20238;-77
2023/12/11 05:42:13;;;;;;;19.83;6.20;;;;;;;;;;4933608;28;20329;-77
2023/12/11 05:44:40;;;;;;;28.37;6.60;;;;;;;;;;4942341;29;20270;-77
2023/12/11 05:47:08;;;;;;;19.63;5.90;;;;;;;;;;4950523;28;20230;-76
2023/12/11 05:49:36;;;;;;;27.80;6.53;;;;;;;;;;4949477;28;20265;-77
2023/12/11 05:52:04;;;;;;;22.83;6.50;;;;;;;;;;4939260;28;20223;-77
2023/12/11 05:54:30;;;;;;;28.07;6.73;;;;;;;;;;4947394;28;20222;-76
2023/12/11 05:57:00;;;;;;;21.80;6.20;;;;;;;;;;4950242;28;20238;-77
2023/12/11 05:59:26;;;;;;;24.70;6.03;;;;;;;;;;4947112;28;20227;-77
2023/12/11 06:01:54;;;;;;;23.90;5.90;;;;;;;;;;4964894;28;20589;-76
2023/12/11 06:04:20;;;;;;;29.60;6.00;;;;;;;;;;4948991;28;20365;-77
2023/12/11 06:06:46;;;;;;;24.80;6.27;;;;;;;;;;4951354;28;20222;-77
2023/12/11 06:09:13;;;;;;;22.33;5.90;;;;;;;;;;4933253;28;20230;-76
2023/12/11 06:11:42;;;;;;;21.60;5.70;;;;;;;;;;4921015;29;20226;-78
2023/12/11 06:14:08;;;;;;;17.73;6.03;;;;;;;;;;4938607;28;20223;-77
2023/12/11 06:16:35;;;;;;;25.13;6.97;;;;;;;;;;4947115;28;20746;-77
2023/12/11 06:19:03;;;;;;;35.57;20.30;;;;;;;;;;4963401;28;20313;-77
2023/12/11 06:21:29;;;;;;;22.20;8.47;;;;;;;;;;4946432;28;20250;-77
2023/12/11 06:23:55;;;;;;;20.67;7.80;;;;;;;;;;4967256;28;20228;-77
2023/12/11 06:26:26;;;;;;;25.10;6.03;;;;;;;;;;4943102;28;20215;-77
2023/12/11 06:28:59;;;;;;;28.13;6.10;;;;;;;;;;4938669;28;20226;-76
2023/12/11 06:31:25;;;;;;;19.73;6.83;;;;;;;;;;4955176;28;20223;-78
2023/12/11 06:33:53;;;;;;;18.03;6.23;;;;;;;;;;4969403;28;20219;-77
2023/12/11 06:36:19;;;;;;;16.00;6.03;;;;;;;;;;4927092;28;20847;-77
2023/12/11 06:38:44;;;;;;;15.03;5.00;;;;;;;;;;4935592;29;20233;-78
2023/12/11 06:41:10;;;;;;;17.90;5.90;;;;;;;;;;4949389;28;20597;-77
2023/12/11 06:43:37;;;;;;;16.10;5.23;;;;;;;;;;4966684;28;20297;-77
2023/12/11 06:46:03;;;;;;;12.60;4.53;;;;;;;;;;4936259;28;20225;-77
2023/12/11 06:48:29;;;;;;;15.63;5.20;;;;;;;;;;4953073;28;20231;-77
2023/12/11 06:50:57;;;;;;;17.47;5.10;;;;;;;;;;4954952;28;20987;-77
2023/12/11 06:53:22;;;;;;;14.80;5.60;;;;;;;;;;4937199;28;20613;-77
2023/12/11 06:55:48;;;;;;;16.67;5.13;;;;;;;;;;4960584;28;20226;-77
2023/12/11 06:58:14;;;;;;;16.37;5.17;;;;;;;;;;4960084;28;20231;-78
2023/12/11 07:00:39;;;;;;;23.00;6.30;;;;;;;;;;4940276;28;20246;-77
2023/12/11 07:03:08;;;;;;;17.50;5.57;;;;;;;;;;4952142;28;20239;-78
2023/12/11 07:05:33;;;;;;;20.20;5.97;;;;;;;;;;4962864;28;20219;-78
2023/12/11 07:07:59;;;;;;;18.60;6.57;;;;;;;;;;4968479;28;20226;-78
2023/12/11 07:10:25;;;;;;;20.20;6.80;;;;;;;;;;4919523;28;20227;-78
2023/12/11 07:12:50;;;;;;;17.07;6.67;;;;;;;;;;4956565;28;20234;-77
2023/12/11 07:15:16;;;;;;;26.50;6.87;;;;;;;;;;4955978;28;20765;-78
2023/12/11 07:17:42;;;;;;;20.23;6.93;;;;;;;;;;4951720;28;20229;-78
2023/12/11 07:20:08;;;;;;;15.07;6.13;;;;;;;;;;4952245;28;20267;-77
2023/12/11 07:22:34;;;;;;;20.70;6.70;;;;;;;;;;4938756;29;20978;-78
2023/12/11 07:25:03;;;;;;;26.03;6.13;;;;;;;;;;4952322;28;20229;-77
2023/12/11 07:27:28;;;;;;;22.10;7.17;;;;;;;;;;4950305;28;20231;-78
2023/12/11 07:29:54;;;;;;;19.43;6.73;;;;;;;;;;4941715;28;20234;-77
2023/12/11 07:32:22;;;;;;;22.50;6.80;;;;;;;;;;4963058;28;20588;-78
2023/12/11 07:34:48;;;;;;;27.50;6.87;;;;;;;;;;4965696;28;20313;-77
2023/12/11 07:37:14;;;;;;;21.97;6.70;;;;;;;;;;4950864;28;20282;-77
2023/12/11 07:39:39;;;;;;;23.03;6.77;;;;;;;;;;4921847;29;20592;-77
2023/12/11 07:42:05;;;;;;;21.20;6.23;;;;;;;;;;4938189;28;20245;-77
2023/12/11 07:44:30;;;;;;;18.20;6.60;;;;;;;;;;4965160;28;20222;-77
2023/12/11 07:46:56;;;;;;;21.33;6.67;;;;;;;;;;4965512;28;20223;-78
2023/12/11 07:49:25;;;;;;;27.47;6.63;;;;;;;;;;4964226;28;20211;-78
2023/12/11 07:51:52;;;;;;;21.83;6.90;;;;;;;;;;4951036;28;20233;-76
2023/12/11 07:54:20;;;;;;;18.93;6.13;;;;;;;;;;4950851;28;20270;-77
2023/12/11 07:56:50;;;;;;;19.87;6.67;;;;;;;;;;4938096;28;20241;-78
2023/12/11 07:59:18;;;;;;;21.57;6.50;;;;;;;;;;4949072;28;20227;-78
2023/12/11 08:01:44;;;;;;;24.23;6.60;;;;;;;;;;4949190;28;20234;-78
2023/12/11 08:04:13;;;;;;;19.43;6.67;;;;;;;;;;4949085;28;20230;-79
2023/12/11 08:06:47;;;;;;;21.97;6.67;;;;;;;;;;4934064;28;20229;-78
2023/12/11 08:09:14;;;;;;;15.80;5.60;;;;;;;;;;4949699;28;20340;-77
2023/12/11 08:11:42;;;;;;;19.27;6.50;;;;;;;;;;4966213;28;20246;-78
2023/12/11 08:14:10;;;;;;;25.43;6.50;;;;;;;;;;4933603;28;20222;-78
2023/12/11 08:16:38;;;;;;;18.00;5.97;;;;;;;;;;4950812;28;20225;-77
2023/12/11 08:19:06;;;;;;;21.50;6.10;;;;;;;;;;4949864;28;20222;-77
2023/12/11 08:21:34;;;;;;;21.27;5.97;;;;;;;;;;4950162;28;20249;-78
2023/12/11 08:24:02;;;;;;;19.63;6.00;;;;;;;;;;4947456;28;20225;-77
2023/12/11 08:26:27;;;;;;;15.90;5.93;;;;;;;;;;4934376;28;20214;-78
2023/12/11 08:28:57;;;;;;;19.27;5.80;;;;;;;;;;4964058;28;20225;-77
2023/12/11 08:31:23;;;;;;;16.83;5.33;;;;;;;;;;4948436;28;20223;-77
2023/12/11 08:33:49;;;;;;;21.23;6.07;;;;;;;;;;4966027;28;20214;-76
2023/12/11 08:36:17;;;;;;;20.40;5.40;;;;;;;;;;4956438;28;20222;-77
2023/12/11 08:38:49;;;;;;;17.17;5.90;;;;;;;;;;4933450;29;20246;-77
2023/12/11 08:41:15;;;;;;;20.90;4.73;;;;;;;;;;4921491;28;20235;-77
2023/12/11 08:43:41;;;;;;;14.60;5.47;;;;;;;;;;4964312;28;20731;-77
2023/12/11 08:46:07;;;;;;;18.13;5.07;;;;;;;;;;4931419;28;20219;-76
2023/12/11 08:48:32;;;;;;;16.97;6.00;;;;;;;;;;4896831;29;20222;-77
2023/12/11 08:50:58;;;;;;;16.50;5.00;;;;;;;;;;4956493;28;20222;-76
2023/12/11 08:53:25;;;;;;;13.43;4.47;;;;;;;;;;4948103;28;20218;-76
2023/12/11 08:55:53;;;;;;;14.53;4.80;;;;;;;;;;4927917;29;20222;-76
2023/12/11 08:58:19;;;;;;;15.07;5.00;;;;;;;;;;4946478;28;20766;-76
2023/12/11 09:00:44;;;;;;;16.93;4.93;;;;;;;;;;4949449;28;20223;-77
2023/12/11 09:03:10;;;;;;;17.07;5.03;;;;;;;;;;4935426;28;20250;-78
2023/12/11 09:05:41;;;;;;;16.57;4.87;;;;;;;;;;4937272;29;20225;-76
2023/12/11 09:08:26;;;;;;;13.23;4.80;;;;;;;;;;4950933;28;20223;-76
2023/12/11 09:10:53;;;;;;;13.73;4.20;;;;;;;;;;4935889;29;20303;-77
2023/12/11 09:13:19;;;;;;;15.93;4.63;;;;;;;;;;4939583;28;20275;-77
2023/12/11 09:15:47;;;;;;;14.43;4.53;;;;;;;;;;4925008;29;20258;-78
2023/12/11 09:18:12;;;;;;;9.33;3.70;;;;;;;;;;4934652;28;20224;-77
2023/12/11 09:20:38;;;;;;;13.20;3.90;;;;;;;;;;4933954;29;20565;-77
2023/12/11 09:23:07;;;;;;;12.30;3.90;;;;;;;;;;4964945;28;20230;-78
2023/12/11 09:25:34;;;;;;;17.73;4.23;;;;;;;;;;4948943;28;20231;-77
2023/12/11 09:28:05;;;;;;;12.70;3.90;;;;;;;;;;4933265;28;20234;-77
2023/12/11 09:30:30;;;;;;;17.37;3.87;;;;;;;;;;4960868;28;20231;-77
2023/12/11 09:32:56;;;;;;;13.53;3.80;;;;;;;;;;4931784;29;20281;-78
2023/12/11 09:35:22;;;;;;;12.73;3.90;;;;;;;;;;4931917;28;20231;-77
2023/12/11 09:37:49;;;;;;;10.40;4.30;;;;;;;;;;4965175;28;20222;-77
2023/12/11 09:40:18;;;;;;;14.93;6.60;;;;;;;;;;4934595;28;20243;-77
2023/12/11 09:42:46;;;;;;;15.50;5.63;;;;;;;;;;4964657;28;20226;-77
2023/12/11 09:45:12;;;;;;;12.30;4.90;;;;;;;;;;4945987;28;20234;-77
2023/12/11 09:47:47;;;;;;;10.33;3.90;;;;;;;;;;4964973;28;20218;-77
2023/12/11 09:50:13;;;;;;;11.23;4.27;;;;;;;;;;4934076;28;20218;-77
2023/12/11 09:52:40;;;;;;;9.83;3.50;;;;;;;;;;4917522;29;20229;-77
2023/12/11 09:55:06;;;;;;;9.53;3.17;;;;;;;;;;4963759;28;20223;-78
2023/12/11 09:57:32;;;;;;;9.80;3.53;;;;;;;;;;4950515;28;20732;-77
2023/12/11 10:00:00;;;;;;;14.30;3.50;;;;;;;;;;4940996;29;20223;-77
2023/12/11 10:02:28;;;;;;;10.83;3.10;;;;;;;;;;4949400;28;20226;-77
2023/12/11 10:05:00;;;;;;;6.37;2.73;;;;;;;;;;4967592;28;20218;-77
2023/12/11 10:07:28;;;;;;;12.83;3.57;;;;;;;;;;4950028;28;20301;-77
2023/12/11 10:09:56;;;;;;;11.27;3.50;;;;;;;;;;4952331;28;20211;-77
2023/12/11 10:12:21;;;;;;;15.27;4.10;;;;;;;;;;4939214;28;20303;-76
2023/12/11 10:15:02;;;;;;;9.83;3.47;;;;;;;;;;4940578;28;20714;-77
2023/12/11 10:17:29;;;;;;;10.03;3.30;;;;;;;;;;4946297;28;20211;-77
2023/12/11 10:19:55;;;;;;;15.67;3.67;;;;;;;;;;4949943;28;20219;-77
2023/12/11 10:22:27;;;;;;;9.97;3.13;;;;;;;;;;4949203;28;20229;-77
2023/12/11 10:24:53;;;;;;;6.10;3.13;;;;;;;;;;4924049;29;20223;-77
2023/12/11 10:27:28;;;;;;;7.20;3.00;;;;;;;;;;4938825;28;20234;-77
2023/12/11 10:30:11;;;;;;;8.50;2.97;;;;;;;;;;4964276;28;20237;-78
2023/12/11 10:32:37;;;;;;;8.07;3.40;;;;;;;;;;4946282;28;20227;-78
2023/12/11 10:35:05;;;;;;;10.37;3.43;;;;;;;;;;4948483;28;20743;-77
2023/12/11 10:37:35;;;;;;;9.40;3.10;;;;;;;;;;4933882;28;20225;-77
2023/12/11 10:40:02;;;;;;;10.33;3.53;;;;;;;;;;4959114;28;20231;-78
2023/12/11 10:42:28;;;;;;;7.57;3.27;;;;;;;;;;4924827;28;20230;-77
2023/12/11 10:45:02;;;;;;;7.87;3.00;;;;;;;;;;4966989;28;20607;-77
2023/12/11 10:47:30;;;;;;;11.07;3.10;;;;;;;;;;4948643;28;20235;-78
2023/12/11 10:50:00;;;;;;;8.23;2.97;;;;;;;;;;4936131;28;20718;-77
2023/12/11 10:52:27;;;;;;;14.60;3.00;;;;;;;;;;4949419;28;20227;-77
2023/12/11 10:54:53;;;;;;;5.30;2.67;;;;;;;;;;4949000;28;20333;-78
2023/12/11 10:57:22;;;;;;;11.13;3.20;;;;;;;;;;4925191;28;20230;-77
2023/12/11 10:59:50;;;;;;;9.23;3.03;;;;;;;;;;4935883;28;20223;-77
2023/12/11 11:02:18;;;;;;;14.63;3.27;;;;;;;;;;4939942;28;20222;-77
2023/12/11 11:04:46;;;;;;;11.33;3.70;;;;;;;;;;4949059;28;20720;-77
2023/12/11 11:07:40;;;;;;;11.23;3.47;;;;;;;;;;4923527;28;20258;-77
2023/12/11 11:10:12;;;;;;;6.90;3.27;;;;;;;;;;4947308;28;20762;-77
2023/12/11 11:12:47;;;;;;;9.93;3.30;;;;;;;;;;4949621;28;20313;-77
2023/12/11 11:15:20;;;;;;;7.37;2.80;;;;;;;;;;4964000;28;20222;-77
2023/12/11 11:18:00;;;;;;;7.83;2.83;;;;;;;;;;4948349;28;20226;-78
2023/12/11 11:20:34;;;;;;;13.60;3.80;;;;;;;;;;4964310;28;20234;-77
2023/12/11 11:23:16;;;;;;;8.97;3.47;;;;;;;;;;4963076;28;20383;-77
2023/12/11 11:25:51;;;;;;;8.17;3.10;;;;;;;;;;4949185;28;20370;-78
2023/12/11 11:28:41;;;;;;;10.80;3.70;;;;;;;;;;4947491;28;20226;-77
2023/12/11 11:31:15;;;;;;;10.60;3.10;;;;;;;;;;4948340;28;20707;-78
2023/12/11 11:33:51;;;;;;;7.67;3.20;;;;;;;;;;4934084;28;20233;-78
2023/12/11 11:36:18;;;;;;;10.07;3.20;;;;;;;;;;4949614;28;20266;-78
2023/12/11 11:38:51;;;;;;;8.90;3.07;;;;;;;;;;4949941;28;20315;-78
2023/12/11 11:41:26;;;;;;;8.40;2.77;;;;;;;;;;4947323;28;20230;-78
2023/12/11 11:43:56;;;;;;;5.27;2.70;;;;;;;;;;4954798;28;20309;-77
2023/12/11 11:46:26;;;;;;;6.00;2.90;;;;;;;;;;4949085;28;20226;-77
2023/12/11 11:48:54;;;;;;;8.43;2.83;;;;;;;;;;4946880;28;20223;-77
2023/12/11 11:51:20;;;;;;;6.83;2.60;;;;;;;;;;4936006;28;20218;-77
2023/12/11 11:53:51;;;;;;;9.70;3.13;;;;;;;;;;4949870;28;20365;-76
2023/12/11 11:56:16;;;;;;;8.60;3.43;;;;;;;;;;4949683;28;20223;-78
2023/12/11 11:58:44;;;;;;;5.13;2.67;;;;;;;;;;4954730;28;20225;-78
2023/12/11 12:01:11;;;;;;;6.27;2.70;;;;;;;;;;4934317;28;20231;-78
2023/12/11 12:03:43;;;;;;;5.67;3.30;;;;;;;;;;4964449;28;20226;-76
2023/12/11 12:06:13;;;;;;;5.73;2.80;;;;;;;;;;4933962;28;20350;-77
2023/12/11 12:08:42;;;;;;;6.00;3.03;;;;;;;;;;4947702;28;20230;-77
2023/12/11 12:11:07;;;;;;;7.30;2.37;;;;;;;;;;4924231;28;20215;-77
2023/12/11 12:13:39;;;;;;;4.43;2.17;;;;;;;;;;4934972;29;20234;-77
2023/12/11 12:16:07;;;;;;;4.03;2.37;;;;;;;;;;4948482;28;20281;-77
2023/12/11 12:18:32;;;;;;;5.33;3.40;;;;;;;;;;4950669;28;20227;-77
2023/12/11 12:21:09;;;;;;;5.03;2.13;;;;;;;;;;4954541;28;20311;-77
2023/12/11 12:23:35;;;;;;;4.87;2.50;;;;;;;;;;4950042;28;20226;-77
2023/12/11 12:26:03;;;;;;;3.83;2.50;;;;;;;;;;4955447;28;20226;-76
2023/12/11 12:28:31;;;;;;;4.67;3.20;;;;;;;;;;4934595;28;20234;-77
2023/12/11 12:31:03;;;;;;;7.43;3.33;;;;;;;;;;4949691;28;20222;-77
2023/12/11 12:33:31;;;;;;;6.83;3.03;;;;;;;;;;4909785;28;20317;-78
2023/12/11 12:36:00;;;;;;;7.13;3.13;;;;;;;;;;4936457;29;20278;-77
2023/12/11 12:38:28;;;;;;;5.23;2.23;;;;;;;;;;4948395;28;20245;-77
2023/12/11 12:40:54;;;;;;;2.60;2.10;;;;;;;;;;4950856;28;20235;-77
2023/12/11 12:43:20;;;;;;;4.13;2.53;;;;;;;;;;4933485;28;20305;-78
2023/12/11 12:45:48;;;;;;;6.60;3.50;;;;;;;;;;4952548;28;20932;-77
2023/12/11 12:48:13;;;;;;;6.73;3.10;;;;;;;;;;4940835;28;20597;-78
2023/12/11 12:50:39;;;;;;;6.30;3.20;;;;;;;;;;4953214;28;20229;-77
2023/12/11 12:53:05;;;;;;;5.20;3.50;;;;;;;;;;4951943;28;20223;-79
2023/12/11 12:55:31;;;;;;;5.57;4.27;;;;;;;;;;4937839;29;20221;-76
2023/12/11 12:57:59;;;;;;;3.67;2.77;;;;;;;;;;4972268;28;20235;-77
2023/12/11 13:00:28;;;;;;;6.83;3.63;;;;;;;;;;4952832;28;20238;-78
2023/12/11 13:02:54;;;;;;;4.53;3.40;;;;;;;;;;4912488;29;20219;-77
2023/12/11 13:05:20;;;;;;;6.13;4.67;;;;;;;;;;4953640;28;20306;-77
2023/12/11 13:07:58;;;;;;;4.70;3.83;;;;;;;;;;4953695;28;20295;-77
2023/12/11 13:10:26;;;;;;;6.60;4.67;;;;;;;;;;4952306;28;21037;-78
2023/12/11 13:12:51;;;;;;;7.97;6.60;;;;;;;;;;4951962;28;20227;-79
2023/12/11 13:15:17;;;;;;;7.77;6.07;;;;;;;;;;4953575;28;20241;-79
2023/12/11 13:17:50;;;;;;;10.73;7.83;;;;;;;;;;4952181;28;20226;-79
2023/12/11 13:20:16;;;;;;;5.33;4.07;;;;;;;;;;4967242;28;20230;-78
2023/12/11 13:22:41;;;;;;;4.53;3.43;;;;;;;;;;4954242;28;20227;-77
2023/12/11 13:25:08;;;;;;;3.37;2.63;;;;;;;;;;4966540;28;20726;-80
2023/12/11 13:27:33;;;;;;;3.47;2.90;;;;;;;;;;4968550;28;20222;-78
2023/12/11 13:30:00;;;;;;;4.87;3.00;;;;;;;;;;4955161;28;20226;-77
2023/12/11 13:32:25;;;;;;;6.33;3.80;;;;;;;;;;4969545;28;20222;-77
2023/12/11 13:34:51;;;;;;;4.07;3.67;;;;;;;;;;4968793;28;20222;-81
2023/12/11 13:37:19;;;;;;;5.10;4.10;;;;;;;;;;4942724;28;20715;-78
2023/12/11 13:39:44;;;;;;;4.60;4.20;;;;;;;;;;4976091;28;20231;-78
2023/12/11 13:42:10;;;;;;;5.47;4.70;;;;;;;;;;4959852;28;20222;-82
2023/12/11 13:44:36;;;;;;;7.83;7.03;;;;;;;;;;4960789;28;20273;-79
2023/12/11 13:47:01;;;;;;;8.53;5.77;;;;;;;;;;4948088;28;20222;-81
2023/12/11 13:49:27;;;;;;;6.57;5.10;;;;;;;;;;4977028;28;20229;-79
2023/12/11 13:51:52;;;;;;;6.13;5.53;;;;;;;;;;4966784;28;20222;-78
2023/12/11 13:54:18;;;;;;;5.50;5.00;;;;;;;;;;4947782;28;20210;-77
2023/12/11 13:56:45;;;;;;;4.97;4.67;;;;;;;;;;4979720;28;20232;-78
2023/12/11 13:59:10;;;;;;;6.33;4.50;;;;;;;;;;4964301;28;20207;-79
2023/12/11 14:01:36;;;;;;;5.33;4.87;;;;;;;;;;4949186;28;20239;-78
2023/12/11 14:04:02;;;;;;;5.70;4.73;;;;;;;;;;4951643;29;20448;-79
2023/12/11 14:06:28;;;;;;;6.23;5.17;;;;;;;;;;4964562;28;20234;-79
2023/12/11 14:08:53;;;;;;;6.00;5.50;;;;;;;;;;4950358;28;20227;-83
2023/12/11 14:11:19;;;;;;;6.47;5.70;;;;;;;;;;4976471;28;20286;-79
2023/12/11 14:13:44;;;;;;;6.90;6.20;;;;;;;;;;4941012;28;20227;-79
2023/12/11 14:16:12;;;;;;;8.80;6.30;;;;;;;;;;4934068;28;20222;-77
2023/12/11 14:18:40;;;;;;;6.60;6.00;;;;;;;;;;4980617;28;20225;-76
2023/12/11 14:21:10;;;;;;;6.43;5.70;;;;;;;;;;4962622;28;20261;-78
2023/12/11 14:23:38;;;;;;;9.30;5.83;;;;;;;;;;4959349;28;20354;-81
2023/12/11 14:26:06;;;;;;;5.33;4.83;;;;;;;;;;4957223;28;20233;-77
2023/12/11 14:28:32;;;;;;;5.37;4.87;;;;;;;;;;4958994;28;20253;-80
2023/12/11 14:31:02;;;;;;;6.00;5.40;;;;;;;;;;4942924;29;20604;-79
2023/12/11 14:33:28;;;;;;;6.40;5.80;;;;;;;;;;4948645;28;20236;-78
2023/12/11 14:35:53;;;;;;;5.73;5.00;;;;;;;;;;4956468;28;20222;-81
2023/12/11 14:38:19;;;;;;;7.93;6.20;;;;;;;;;;4950843;28;20233;-81
2023/12/11 14:40:45;;;;;;;8.30;6.63;;;;;;;;;;4964646;28;20707;-79
2023/12/11 14:43:13;;;;;;;6.07;4.23;;;;;;;;;;4942507;28;20286;-79
2023/12/11 14:45:38;;;;;;;8.03;7.07;;;;;;;;;;4959293;28;20239;-78